Time,TemperatureF,DewpointF,PressureIn,WindDirection,WindDirectionDegrees,WindSpeedMPH,WindSpeedGustMPH,Humidity,HourlyPrecipIn,Conditions,Clouds,dailyrainin,SoftwareType,DateUTC
2013-08-22 00:01:00,69.3,68.7,30.21,SSW,202,0.0,0.0,98,0.00,,,0.00,VWS V14.01,2013-08-22 04:01:00,
2013-08-22 00:02:00,69.3,68.7,30.21,SSW,202,0.0,0.0,98,0.00,,,0.00,VWS V14.01,2013-08-22 04:02:00,
2013-08-22 00:07:00,69.1,68.5,30.21,SSW,202,0.0,0.0,98,0.00,,,0.00,VWS V14.01,2013-08-22 04:07:00,
2013-08-22 00:12:00,69.1,68.5,30.21,SSW,202,0.0,0.0,98,0.00,,,0.00,VWS V14.01,2013-08-22 04:12:00,
2013-08-22 00:17:00,68.9,68.3,30.21,SSW,202,0.0,0.0,98,0.00,,,0.00,VWS V14.01,2013-08-22 04:17:00,
2013-08-22 00:22:00,68.7,68.1,30.21,SSW,202,0.0,0.0,98,0.00,,,0.00,VWS V14.01,2013-08-22 04:22:00,
2013-08-22 00:27:00,68.9,68.3,30.21,SSW,202,0.0,0.0,98,0.00,,,0.00,VWS V14.01,2013-08-22 04:27:00,
2013-08-22 00:32:00,68.7,68.1,30.21,SSW,202,0.0,0.0,98,0.00,,,0.00,VWS V14.01,2013-08-22 04:32:00,
2013-08-22 00:37:00,68.7,68.1,30.21,SSW,202,0.0,0.0,98,0.00,,,0.00,VWS V14.01,2013-08-22 04:37:00,
2013-08-22 00:42:00,68.7,68.1,30.21,SSW,202,0.0,0.0,98,0.00,,,0.00,VWS V14.01,2013-08-22 04:42:00,
2013-08-22 00:47:00,68.9,68.3,30.21,SSW,202,0.0,0.0,98,0.00,,,0.00,VWS V14.01,2013-08-22 04:47:00,
2013-08-22 00:52:00,68.7,68.1,30.18,SSW,202,0.0,0.0,98,0.00,,,0.00,VWS V14.01,2013-08-22 04:52:00,
2013-08-22 00:57:00,68.5,68.0,30.18,SSW,202,0.0,0.0,98,0.00,,,0.00,VWS V14.01,2013-08-22 04:57:00,
2013-08-22 01:03:00,68.7,68.1,30.18,SSW,202,0.0,0.0,98,0.00,,,0.00,VWS V14.01,2013-08-22 05:03:00,
2013-08-22 01:08:00,68.2,67.6,30.18,SSW,202,0.0,0.0,98,0.00,,,0.00,VWS V14.01,2013-08-22 05:08:00,
2013-08-22 01:13:00,68.2,67.6,30.18,SSW,202,0.0,0.0,98,0.00,,,0.00,VWS V14.01,2013-08-22 05:13:00,
2013-08-22 01:18:00,68.2,67.6,30.18,SSW,202,0.0,0.0,98,0.00,,,0.00,VWS V14.01,2013-08-22 05:18:00,
2013-08-22 01:23:00,68.4,67.8,30.21,SSW,202,0.0,0.0,98,0.00,,,0.00,VWS V14.01,2013-08-22 05:23:00,
2013-08-22 01:28:00,68.2,67.6,30.21,SSW,202,0.0,0.0,98,0.00,,,0.00,VWS V14.01,2013-08-22 05:28:00,
2013-08-22 01:33:00,68.4,67.8,30.21,SSW,202,0.0,0.0,98,0.00,,,0.00,VWS V14.01,2013-08-22 05:33:00,
2013-08-22 01:38:00,68.2,67.6,30.21,SSW,202,0.0,0.0,98,0.00,,,0.00,VWS V14.01,2013-08-22 05:38:00,
2013-08-22 01:43:00,68.0,67.4,30.21,SSW,202,0.0,0.0,98,0.00,,,0.00,VWS V14.01,2013-08-22 05:43:00,
2013-08-22 01:48:00,68.0,67.4,30.21,SSW,202,0.0,0.0,98,0.00,,,0.00,VWS V14.01,2013-08-22 05:48:00,
2013-08-22 01:53:00,68.0,67.4,30.21,SSW,202,0.0,0.0,98,0.00,,,0.00,VWS V14.01,2013-08-22 05:53:00,
2013-08-22 01:58:00,68.0,67.4,30.21,SSW,202,0.0,0.0,98,0.00,,,0.00,VWS V14.01,2013-08-22 05:58:00,
2013-08-22 02:03:00,68.2,67.6,30.21,SSW,202,0.0,0.0,98,0.00,,,0.00,VWS V14.01,2013-08-22 06:03:00,
2013-08-22 02:08:00,68.0,67.4,30.21,SSW,202,0.0,0.0,98,0.00,,,0.00,VWS V14.01,2013-08-22 06:08:00,
2013-08-22 02:13:00,68.0,67.4,30.21,SSW,202,0.0,0.0,98,0.00,,,0.00,VWS V14.01,2013-08-22 06:13:00,
2013-08-22 02:18:00,68.0,67.4,30.21,SSW,202,0.0,0.0,98,0.00,,,0.00,VWS V14.01,2013-08-22 06:18:00,
2013-08-22 02:23:00,68.0,67.4,30.18,SSW,202,0.0,0.0,98,0.00,,,0.00,VWS V14.01,2013-08-22 06:23:00,
2013-08-22 02:28:00,68.0,67.4,30.18,SSW,202,0.0,0.0,98,0.00,,,0.00,VWS V14.01,2013-08-22 06:28:00,
2013-08-22 02:33:00,68.2,67.6,30.18,SSW,202,0.0,0.0,98,0.00,,,0.00,VWS V14.01,2013-08-22 06:33:00,
2013-08-22 02:38:00,68.2,67.6,30.21,SSW,202,0.0,0.0,98,0.00,,,0.00,VWS V14.01,2013-08-22 06:38:00,
2013-08-22 02:43:00,68.4,67.8,30.21,SSW,202,0.0,0.0,98,0.00,,,0.00,VWS V14.01,2013-08-22 06:43:00,
2013-08-22 02:48:00,68.4,67.8,30.21,SSW,202,0.0,0.0,98,0.00,,,0.00,VWS V14.01,2013-08-22 06:48:00,
2013-08-22 02:53:00,68.5,68.0,30.21,SSW,202,0.0,0.0,98,0.00,,,0.00,VWS V14.01,2013-08-22 06:53:00,
2013-08-22 02:58:00,68.7,68.1,30.21,SSW,202,0.0,0.0,98,0.00,,,0.00,VWS V14.01,2013-08-22 06:58:00,
2013-08-22 03:03:00,68.7,68.1,30.21,SSW,202,0.0,0.0,98,0.00,,,0.00,VWS V14.01,2013-08-22 07:03:00,
2013-08-22 03:08:00,68.7,68.1,30.18,SSW,202,0.0,0.0,98,0.00,,,0.00,VWS V14.01,2013-08-22 07:08:00,
2013-08-22 03:13:00,68.9,68.3,30.18,SSW,202,0.0,0.0,98,0.00,,,0.00,VWS V14.01,2013-08-22 07:13:00,
2013-08-22 03:18:00,68.9,68.3,30.18,SSW,202,0.0,0.0,98,0.00,,,0.00,VWS V14.01,2013-08-22 07:18:00,
2013-08-22 03:23:00,68.9,68.3,30.21,SSW,202,0.0,0.0,98,0.00,,,0.00,VWS V14.01,2013-08-22 07:23:00,
2013-08-22 03:28:00,69.1,68.5,30.21,SSW,202,0.0,0.0,98,0.00,,,0.00,VWS V14.01,2013-08-22 07:28:00,
2013-08-22 03:33:00,68.9,68.3,30.21,SSW,202,0.0,0.0,98,0.00,,,0.00,VWS V14.01,2013-08-22 07:33:00,
2013-08-22 03:38:00,68.9,68.3,30.21,SSW,202,0.0,0.0,98,0.00,,,0.00,VWS V14.01,2013-08-22 07:38:00,
2013-08-22 03:43:00,69.1,68.5,30.21,SSW,202,0.0,0.0,98,0.00,,,0.00,VWS V14.01,2013-08-22 07:43:00,
2013-08-22 03:48:00,69.1,68.5,30.21,SSW,202,0.0,0.0,98,0.00,,,0.00,VWS V14.01,2013-08-22 07:48:00,
2013-08-22 03:53:00,68.9,68.3,30.21,SSW,202,0.0,0.0,98,0.00,,,0.00,VWS V14.01,2013-08-22 07:53:00,
2013-08-22 03:58:00,68.9,68.3,30.21,SSW,202,0.0,0.0,98,0.00,,,0.00,VWS V14.01,2013-08-22 07:58:00,
2013-08-22 04:03:00,68.9,68.3,30.21,SSW,202,0.0,0.0,98,0.00,,,0.00,VWS V14.01,2013-08-22 08:03:00,
2013-08-22 04:08:00,68.9,68.3,30.18,SSW,202,0.0,0.0,98,0.00,,,0.00,VWS V14.01,2013-08-22 08:08:00,
2013-08-22 04:13:00,68.9,68.3,30.18,SSW,202,0.0,0.0,98,0.00,,,0.00,VWS V14.01,2013-08-22 08:13:00,
2013-08-22 04:18:00,69.1,68.5,30.18,SSW,202,0.0,0.0,98,0.00,,,0.00,VWS V14.01,2013-08-22 08:18:00,
2013-08-22 04:23:00,69.3,68.7,30.18,SSW,202,0.0,0.0,98,0.00,,,0.00,VWS V14.01,2013-08-22 08:23:00,
2013-08-22 04:28:00,69.4,68.8,30.18,SSW,202,0.0,0.0,98,0.00,,,0.00,VWS V14.01,2013-08-22 08:28:00,
2013-08-22 04:33:00,69.4,68.8,30.18,SSW,202,0.0,0.0,98,0.00,,,0.00,VWS V14.01,2013-08-22 08:33:00,
2013-08-22 04:38:00,69.4,68.8,30.18,SSW,202,0.0,0.0,98,0.00,,,0.00,VWS V14.01,2013-08-22 08:38:00,
2013-08-22 04:43:00,69.4,68.8,30.18,SSW,202,0.0,0.0,98,0.00,,,0.00,VWS V14.01,2013-08-22 08:43:00,
2013-08-22 04:48:00,69.6,69.0,30.18,SSW,202,0.0,0.0,98,0.00,,,0.00,VWS V14.01,2013-08-22 08:48:00,
2013-08-22 04:53:00,69.6,69.0,30.18,SSW,202,0.0,0.0,98,0.00,,,0.00,VWS V14.01,2013-08-22 08:53:00,
2013-08-22 04:58:00,69.6,69.0,30.18,SSW,202,0.0,0.0,98,0.00,,,0.00,VWS V14.01,2013-08-22 08:58:00,
2013-08-22 05:03:00,69.6,69.0,30.18,SSW,202,0.0,0.0,98,0.00,,,0.00,VWS V14.01,2013-08-22 09:03:00,
2013-08-22 05:08:00,69.8,69.2,30.18,SSW,202,0.0,0.0,98,0.00,,,0.00,VWS V14.01,2013-08-22 09:08:00,
2013-08-22 05:13:00,69.6,69.0,30.18,SSW,202,0.0,0.0,98,0.00,,,0.00,VWS V14.01,2013-08-22 09:13:00,
2013-08-22 05:18:00,69.6,69.0,30.18,SSW,202,0.0,0.0,98,0.00,,,0.00,VWS V14.01,2013-08-22 09:18:00,
2013-08-22 05:23:00,69.4,68.8,30.18,SSW,202,0.0,0.0,98,0.00,,,0.00,VWS V14.01,2013-08-22 09:23:00,
2013-08-22 05:28:00,69.4,68.8,30.18,SSW,202,0.0,0.0,98,0.00,,,0.00,VWS V14.01,2013-08-22 09:28:00,
2013-08-22 05:33:00,69.4,68.8,30.18,SSW,202,0.0,0.0,98,0.00,,,0.00,VWS V14.01,2013-08-22 09:33:00,
2013-08-22 05:38:00,69.4,68.8,30.18,SSW,202,0.0,0.0,98,0.00,,,0.00,VWS V14.01,2013-08-22 09:38:00,
2013-08-22 05:43:00,69.4,68.8,30.18,SSW,202,0.0,0.0,98,0.00,,,0.00,VWS V14.01,2013-08-22 09:43:00,
2013-08-22 05:48:00,69.4,68.8,30.18,SSW,202,0.0,0.0,98,0.00,,,0.00,VWS V14.01,2013-08-22 09:48:00,
2013-08-22 05:53:00,69.4,68.8,30.18,SSW,202,0.0,0.0,98,0.00,,,0.00,VWS V14.01,2013-08-22 09:53:00,
2013-08-22 05:58:00,69.4,68.8,30.18,SSW,202,0.0,0.0,98,0.00,,,0.00,VWS V14.01,2013-08-22 09:58:00,
2013-08-22 06:03:00,69.3,68.7,30.15,SSW,202,0.0,0.0,98,0.00,,,0.00,VWS V14.01,2013-08-22 10:03:00,
2013-08-22 06:08:00,69.3,68.7,30.15,SSW,202,0.0,0.0,98,0.00,,,0.00,VWS V14.01,2013-08-22 10:08:00,
2013-08-22 06:13:00,69.3,68.7,30.15,SSW,202,0.0,0.0,98,0.00,,,0.00,VWS V14.01,2013-08-22 10:13:00,
2013-08-22 06:18:00,69.1,68.5,30.18,SSW,202,0.0,0.0,98,0.00,,,0.00,VWS V14.01,2013-08-22 10:18:00,
2013-08-22 06:23:00,69.3,68.7,30.18,SSW,202,0.0,0.0,98,0.00,,,0.00,VWS V14.01,2013-08-22 10:23:00,
2013-08-22 06:28:00,69.3,68.7,30.18,SSW,202,0.0,0.0,98,0.00,,,0.00,VWS V14.01,2013-08-22 10:28:00,
2013-08-22 06:33:00,69.1,68.5,30.18,SSW,202,0.0,0.0,98,0.00,,,0.00,VWS V14.01,2013-08-22 10:33:00,
2013-08-22 06:38:00,68.9,68.3,30.18,SSW,202,0.0,0.0,98,0.00,,,0.00,VWS V14.01,2013-08-22 10:38:00,
2013-08-22 06:43:00,68.9,68.3,30.18,SSW,202,0.0,0.0,98,0.00,,,0.00,VWS V14.01,2013-08-22 10:43:00,
2013-08-22 06:48:00,68.7,68.1,30.18,SSW,202,0.0,0.0,98,0.00,,,0.00,VWS V14.01,2013-08-22 10:48:00,
2013-08-22 08:27:00,69.3,68.7,30.21,SSW,202,0.0,0.0,98,0.00,,,0.00,VWS V14.01,2013-08-22 12:27:00,
2013-08-22 08:32:00,69.3,68.7,30.21,SSW,202,0.0,0.0,98,0.00,,,0.00,VWS V14.01,2013-08-22 12:32:00,
2013-08-22 08:37:00,69.3,68.7,30.18,SSW,202,0.0,0.0,98,0.00,,,0.00,VWS V14.01,2013-08-22 12:37:00,
2013-08-22 08:42:00,69.4,68.8,30.18,SSW,202,0.0,0.0,98,0.00,,,0.00,VWS V14.01,2013-08-22 12:42:00,
2013-08-22 08:47:00,69.6,69.0,30.18,SSW,202,0.0,0.0,98,0.00,,,0.00,VWS V14.01,2013-08-22 12:47:00,
2013-08-22 08:52:00,69.8,69.2,30.18,SSW,202,0.0,0.0,98,0.00,,,0.00,VWS V14.01,2013-08-22 12:52:00,
2013-08-22 08:57:00,69.8,69.2,30.18,SSW,202,0.0,0.0,98,0.00,,,0.00,VWS V14.01,2013-08-22 12:57:00,
2013-08-22 09:01:00,70.2,69.6,30.18,SSW,202,0.0,0.0,98,0.00,,,0.00,VWS V14.01,2013-08-22 13:01:00,
2013-08-22 09:06:00,69.8,69.2,30.18,SSW,202,0.0,0.0,98,0.00,,,0.00,VWS V14.01,2013-08-22 13:06:00,
2013-08-22 09:11:00,70.3,69.8,30.18,SSW,202,0.0,0.0,98,0.00,,,0.00,VWS V14.01,2013-08-22 13:11:00,
2013-08-22 09:16:00,70.7,70.1,30.18,SSW,202,0.0,0.0,98,0.00,,,0.00,VWS V14.01,2013-08-22 13:16:00,
2013-08-22 09:21:00,70.5,69.9,30.18,SSW,202,0.0,0.0,98,0.00,,,0.00,VWS V14.01,2013-08-22 13:21:00,
2013-08-22 09:26:00,71.1,70.5,30.18,SSW,202,0.0,0.0,98,0.00,,,0.00,VWS V14.01,2013-08-22 13:26:00,
2013-08-22 09:31:00,71.4,70.8,30.18,SSW,202,0.0,0.0,98,0.00,,,0.00,VWS V14.01,2013-08-22 13:31:00,
2013-08-22 09:36:00,71.4,70.8,30.18,SSW,202,0.0,0.0,98,0.00,,,0.00,VWS V14.01,2013-08-22 13:36:00,
2013-08-22 09:41:00,72.0,71.4,30.18,SSW,202,0.0,0.0,98,0.00,,,0.00,VWS V14.01,2013-08-22 13:41:00,
2013-08-22 09:46:00,72.0,71.4,30.18,SSW,202,0.0,0.0,98,0.00,,,0.00,VWS V14.01,2013-08-22 13:46:00,
2013-08-22 09:51:00,72.1,71.6,30.18,SSW,202,0.0,0.0,98,0.00,,,0.00,VWS V14.01,2013-08-22 13:51:00,
2013-08-22 09:56:00,72.3,71.7,30.18,SSW,202,0.0,0.0,98,0.00,,,0.00,VWS V14.01,2013-08-22 13:56:00,
2013-08-22 10:01:00,72.5,71.9,30.18,SSW,202,0.0,2.7,98,0.00,,,0.00,VWS V14.01,2013-08-22 14:01:00,
2013-08-22 10:06:00,73.2,72.6,30.18,SSW,202,0.0,0.0,98,0.00,,,0.00,VWS V14.01,2013-08-22 14:06:00,
2013-08-22 10:11:00,73.6,73.0,30.18,SSW,202,0.0,2.7,98,0.00,,,0.00,VWS V14.01,2013-08-22 14:11:00,
2013-08-22 10:16:00,73.9,73.3,30.18,SSW,202,0.0,0.0,98,0.00,,,0.00,VWS V14.01,2013-08-22 14:16:00,
2013-08-22 10:21:00,74.5,73.9,30.18,SSW,202,2.2,2.2,98,0.00,,,0.00,VWS V14.01,2013-08-22 14:21:00,
2013-08-22 10:26:00,74.8,73.9,30.18,SSW,202,3.1,3.6,97,0.00,,,0.00,VWS V14.01,2013-08-22 14:26:00,
2013-08-22 10:31:00,75.4,74.2,30.18,SSW,202,0.0,2.2,96,0.00,,,0.00,VWS V14.01,2013-08-22 14:31:00,
2013-08-22 10:36:00,75.7,73.9,30.18,SSW,202,2.2,2.2,94,0.00,,,0.00,VWS V14.01,2013-08-22 14:36:00,
2013-08-22 10:41:00,75.9,72.4,30.18,SSW,202,2.7,2.7,89,0.00,,,0.00,VWS V14.01,2013-08-22 14:41:00,
2013-08-22 10:46:00,76.5,72.0,30.18,SSW,202,0.0,3.1,86,0.00,,,0.00,VWS V14.01,2013-08-22 14:46:00,
2013-08-22 10:51:00,76.6,70.4,30.18,SSW,202,0.0,0.0,81,0.00,,,0.00,VWS V14.01,2013-08-22 14:51:00,
2013-08-22 10:56:00,77.2,70.2,30.18,SSW,202,2.2,2.2,79,0.00,,,0.00,VWS V14.01,2013-08-22 14:56:00,
2013-08-22 11:01:00,77.5,69.8,30.18,SSW,202,2.2,2.2,77,0.00,,,0.00,VWS V14.01,2013-08-22 15:01:00,
2013-08-22 11:06:00,78.1,69.9,30.18,SSW,202,0.0,0.0,76,0.00,,,0.00,VWS V14.01,2013-08-22 15:06:00,
2013-08-22 11:11:00,78.6,70.0,30.18,SSW,202,0.0,2.7,75,0.00,,,0.00,VWS V14.01,2013-08-22 15:11:00,
2013-08-22 11:16:00,79.5,69.7,30.18,SSW,202,0.0,0.0,72,0.00,,,0.00,VWS V14.01,2013-08-22 15:16:00,
2013-08-22 11:21:00,81.0,69.4,30.18,SSW,202,2.7,2.7,68,0.00,,,0.00,VWS V14.01,2013-08-22 15:21:00,
2013-08-22 11:26:00,81.7,68.8,30.18,SSW,202,3.1,3.1,65,0.00,,,0.00,VWS V14.01,2013-08-22 15:26:00,
2013-08-22 11:31:00,82.8,67.9,30.18,SSW,202,3.1,3.6,61,0.00,,,0.00,VWS V14.01,2013-08-22 15:31:00,
2013-08-22 11:36:00,83.5,70.5,30.18,SSW,202,0.0,0.0,65,0.00,,,0.00,VWS V14.01,2013-08-22 15:36:00,
2013-08-22 11:41:00,83.7,67.8,30.18,SSW,202,0.0,0.0,59,0.00,,,0.00,VWS V14.01,2013-08-22 15:41:00,
2013-08-22 11:46:00,83.8,66.5,30.18,SSW,202,2.7,3.1,56,0.00,,,0.00,VWS V14.01,2013-08-22 15:46:00,
2013-08-22 11:51:00,84.4,67.5,30.18,SSW,202,0.0,0.0,57,0.00,,,0.00,VWS V14.01,2013-08-22 15:51:00,
2013-08-22 11:56:00,85.3,65.7,30.18,SSW,202,2.7,2.7,52,0.00,,,0.00,VWS V14.01,2013-08-22 15:56:00,
2013-08-22 12:01:00,84.2,63.0,30.18,SSW,202,2.7,2.7,49,0.00,,,0.00,VWS V14.01,2013-08-22 16:01:00,
2013-08-22 12:06:00,84.7,64.6,30.15,SSW,202,2.2,2.2,51,0.00,,,0.00,VWS V14.01,2013-08-22 16:06:00,
2013-08-22 12:11:00,86.2,59.7,30.15,SSW,202,0.0,2.2,41,0.00,,,0.00,VWS V14.01,2013-08-22 16:11:00,
2013-08-22 12:16:00,86.2,61.7,30.15,SSW,202,2.7,2.7,44,0.00,,,0.00,VWS V14.01,2013-08-22 16:16:00,
2013-08-22 12:21:00,86.4,62.5,30.15,SSW,202,2.7,2.7,45,0.00,,,0.00,VWS V14.01,2013-08-22 16:21:00,
2013-08-22 12:26:00,87.1,61.2,30.15,SSW,202,2.2,2.2,42,0.00,,,0.00,VWS V14.01,2013-08-22 16:26:00,
2013-08-22 12:31:00,87.1,61.2,30.15,SSW,202,0.0,0.0,42,0.00,,,0.00,VWS V14.01,2013-08-22 16:31:00,
2013-08-22 12:36:00,87.1,61.2,30.15,SSW,202,3.1,3.1,42,0.00,,,0.00,VWS V14.01,2013-08-22 16:36:00,
2013-08-22 12:41:00,87.1,61.2,30.15,SSW,202,2.7,3.1,42,0.00,,,0.00,VWS V14.01,2013-08-22 16:41:00,
2013-08-22 12:46:00,87.1,63.2,30.15,SSW,202,0.0,0.0,45,0.00,,,0.00,VWS V14.01,2013-08-22 16:46:00,
2013-08-22 12:51:00,87.1,63.8,30.15,SSW,202,0.0,0.0,46,0.00,,,0.00,VWS V14.01,2013-08-22 16:51:00,
2013-08-22 12:56:00,87.1,63.8,30.15,SSW,202,2.2,2.2,46,0.00,,,0.00,VWS V14.01,2013-08-22 16:56:00,
2013-08-22 13:01:00,88.7,63.3,30.15,SSW,202,2.7,2.7,43,0.00,,,0.00,VWS V14.01,2013-08-22 17:01:00,
2013-08-22 13:06:00,88.5,60.4,30.15,SSW,202,3.1,3.1,39,0.00,,,0.00,VWS V14.01,2013-08-22 17:06:00,
2013-08-22 13:11:00,88.3,60.3,30.15,SSW,202,0.0,0.0,39,0.00,,,0.00,VWS V14.01,2013-08-22 17:11:00,
2013-08-22 13:16:00,88.3,61.0,30.15,SSW,202,0.0,0.0,40,0.00,,,0.00,VWS V14.01,2013-08-22 17:16:00,
2013-08-22 13:21:00,87.8,59.8,30.12,SSW,202,3.1,3.1,39,0.00,,,0.00,VWS V14.01,2013-08-22 17:21:00,
2013-08-22 13:26:00,86.9,58.3,30.12,SSW,202,2.7,3.6,38,0.00,,,0.00,VWS V14.01,2013-08-22 17:26:00,
2013-08-22 13:31:00,87.8,61.2,30.12,SSW,202,2.7,3.1,41,0.00,,,0.00,VWS V14.01,2013-08-22 17:31:00,
2013-08-22 13:36:00,87.8,59.8,30.12,SSW,202,0.0,2.7,39,0.00,,,0.00,VWS V14.01,2013-08-22 17:36:00,
2013-08-22 13:41:00,88.2,55.5,30.12,SSW,202,3.6,4.0,33,0.00,,,0.00,VWS V14.01,2013-08-22 17:41:00,
2013-08-22 13:46:00,88.2,56.3,30.12,SSW,202,0.0,2.7,34,0.00,,,0.00,VWS V14.01,2013-08-22 17:46:00,
2013-08-22 13:51:00,88.7,60.6,30.12,SSW,202,2.2,2.7,39,0.00,,,0.00,VWS V14.01,2013-08-22 17:51:00,
2013-08-22 13:56:00,89.8,60.1,30.12,SSW,202,0.0,2.2,37,0.00,,,0.00,VWS V14.01,2013-08-22 17:56:00,
2013-08-22 14:01:00,89.1,60.9,30.12,SSW,202,3.1,3.6,39,0.00,,,0.00,VWS V14.01,2013-08-22 18:01:00,
2013-08-22 14:06:00,88.7,57.6,30.12,SSW,202,2.7,2.7,35,0.00,,,0.00,VWS V14.01,2013-08-22 18:06:00,
2013-08-22 14:11:00,89.2,60.3,30.12,SSW,202,3.6,3.6,38,0.00,,,0.00,VWS V14.01,2013-08-22 18:11:00,
2013-08-22 14:16:00,89.6,59.1,30.12,SSW,202,0.0,3.1,36,0.00,,,0.00,VWS V14.01,2013-08-22 18:16:00,
2013-08-22 14:21:00,91.4,60.7,30.12,SSW,202,3.1,3.1,36,0.00,,,0.00,VWS V14.01,2013-08-22 18:21:00,
2013-08-22 14:26:00,89.4,59.7,30.12,SSW,202,4.0,4.0,37,0.00,,,0.00,VWS V14.01,2013-08-22 18:26:00,
2013-08-22 14:31:00,89.8,58.5,30.12,SSW,202,0.0,2.2,35,0.00,,,0.00,VWS V14.01,2013-08-22 18:31:00,
2013-08-22 14:36:00,90.0,57.0,30.09,SSW,202,0.0,3.1,33,0.00,,,0.00,VWS V14.01,2013-08-22 18:36:00,
2013-08-22 14:41:00,89.4,57.4,30.09,SSW,202,2.2,2.7,34,0.00,,,0.00,VWS V14.01,2013-08-22 18:41:00,
2013-08-22 14:46:00,90.5,59.1,30.09,SSW,202,0.0,0.0,35,0.00,,,0.00,VWS V14.01,2013-08-22 18:46:00,
2013-08-22 14:51:00,90.7,57.7,30.09,SSW,202,0.0,0.0,33,0.00,,,0.00,VWS V14.01,2013-08-22 18:51:00,
2013-08-22 14:56:00,89.4,56.6,30.09,SSW,202,0.0,2.2,33,0.00,,,0.00,VWS V14.01,2013-08-22 18:56:00,
2013-08-22 15:01:00,89.2,60.3,30.09,SSW,202,0.0,0.0,38,0.00,,,0.00,VWS V14.01,2013-08-22 19:01:00,
2013-08-22 15:06:00,89.2,58.8,30.09,SSW,202,0.0,2.2,36,0.00,,,0.00,VWS V14.01,2013-08-22 19:06:00,
2013-08-22 15:11:00,89.6,59.1,30.09,SSW,202,2.7,2.7,36,0.00,,,0.00,VWS V14.01,2013-08-22 19:11:00,
2013-08-22 15:16:00,90.5,56.6,30.09,SSW,202,2.2,2.2,32,0.00,,,0.00,VWS V14.01,2013-08-22 19:16:00,
2013-08-22 15:21:00,90.1,55.5,30.09,SSW,202,0.0,2.2,31,0.00,,,0.00,VWS V14.01,2013-08-22 19:21:00,
2013-08-22 15:26:00,90.1,57.2,30.09,SSW,202,0.0,0.0,33,0.00,,,0.00,VWS V14.01,2013-08-22 19:26:00,
2013-08-22 15:31:00,89.8,56.9,30.09,SSW,202,0.0,2.2,33,0.00,,,0.00,VWS V14.01,2013-08-22 19:31:00,
2013-08-22 15:36:00,89.6,60.7,30.09,SSW,202,0.0,0.0,38,0.00,,,0.00,VWS V14.01,2013-08-22 19:36:00,
2013-08-22 15:41:00,89.6,59.9,30.09,SSW,202,0.0,0.0,37,0.00,,,0.00,VWS V14.01,2013-08-22 19:41:00,
2013-08-22 15:46:00,89.2,59.6,30.09,SSW,202,0.0,2.2,37,0.00,,,0.00,VWS V14.01,2013-08-22 19:46:00,
2013-08-22 15:52:00,88.5,60.4,30.06,SSW,202,2.7,2.7,39,0.00,,,0.00,VWS V14.01,2013-08-22 19:52:00,
2013-08-22 15:57:00,88.2,60.8,30.06,SSW,202,0.0,2.2,40,0.00,,,0.00,VWS V14.01,2013-08-22 19:57:00,
2013-08-22 16:02:00,88.2,60.8,30.06,SSW,202,3.6,3.6,40,0.00,,,0.00,VWS V14.01,2013-08-22 20:02:00,
2013-08-22 16:07:00,88.2,60.1,30.09,SSW,202,3.1,3.1,39,0.00,,,0.00,VWS V14.01,2013-08-22 20:07:00,
2013-08-22 16:12:00,87.1,59.8,30.09,SSW,202,2.7,3.1,40,0.00,,,0.00,VWS V14.01,2013-08-22 20:12:00,
2013-08-22 16:17:00,87.1,59.2,30.09,SSW,202,0.0,2.7,39,0.00,,,0.00,VWS V14.01,2013-08-22 20:17:00,
2013-08-22 16:22:00,87.4,62.2,30.06,SSW,202,3.1,3.1,43,0.00,,,0.00,VWS V14.01,2013-08-22 20:22:00,
2013-08-22 16:27:00,86.9,61.1,30.06,SSW,202,2.2,3.6,42,0.00,,,0.00,VWS V14.01,2013-08-22 20:27:00,
2013-08-22 16:32:00,86.7,60.2,30.06,SSW,202,3.1,3.1,41,0.00,,,0.00,VWS V14.01,2013-08-22 20:32:00,
2013-08-22 16:37:00,86.9,59.7,30.06,SSW,202,0.0,0.0,40,0.00,,,0.00,VWS V14.01,2013-08-22 20:37:00,
2013-08-22 16:42:00,87.1,61.2,30.06,SSW,202,0.0,2.2,42,0.00,,,0.00,VWS V14.01,2013-08-22 20:42:00,
2013-08-22 16:47:00,86.9,61.1,30.06,SSW,202,2.7,2.7,42,0.00,,,0.00,VWS V14.01,2013-08-22 20:47:00,
2013-08-22 16:52:00,86.9,62.4,30.06,SSW,202,2.7,3.1,44,0.00,,,0.00,VWS V14.01,2013-08-22 20:52:00,
2013-08-22 16:57:00,86.4,60.6,30.06,SSW,202,0.0,0.0,42,0.00,,,0.00,VWS V14.01,2013-08-22 20:57:00,
2013-08-22 17:02:00,86.4,60.6,30.06,SSW,202,0.0,0.0,42,0.00,,,0.00,VWS V14.01,2013-08-22 21:02:00,
2013-08-22 17:07:00,86.4,59.9,30.06,SSW,202,2.7,2.7,41,0.00,,,0.00,VWS V14.01,2013-08-22 21:07:00,
2013-08-22 17:12:00,86.7,61.6,30.06,SSW,202,0.0,0.0,43,0.00,,,0.00,VWS V14.01,2013-08-22 21:12:00,
2013-08-22 17:17:00,86.5,60.7,30.06,SSW,202,2.7,4.0,42,0.00,,,0.00,VWS V14.01,2013-08-22 21:17:00,
2013-08-22 17:22:00,86.5,59.4,30.06,SSW,202,3.1,3.1,40,0.00,,,0.00,VWS V14.01,2013-08-22 21:22:00,
2013-08-22 17:27:00,86.2,59.7,30.06,SSW,202,0.0,3.1,41,0.00,,,0.00,VWS V14.01,2013-08-22 21:27:00,
2013-08-22 17:32:00,86.5,62.1,30.06,SSW,202,0.0,0.0,44,0.00,,,0.00,VWS V14.01,2013-08-22 21:32:00,
2013-08-22 17:37:00,86.4,60.6,30.06,SSW,202,2.7,2.7,42,0.00,,,0.00,VWS V14.01,2013-08-22 21:37:00,
2013-08-22 17:42:00,85.8,60.8,30.06,SSW,202,2.2,2.2,43,0.00,,,0.00,VWS V14.01,2013-08-22 21:42:00,
2013-08-22 17:47:00,85.8,60.1,30.06,SSW,202,3.1,3.1,42,0.00,,,0.00,VWS V14.01,2013-08-22 21:47:00,
2013-08-22 17:52:00,85.8,60.8,30.06,SSW,202,0.0,2.2,43,0.00,,,0.00,VWS V14.01,2013-08-22 21:52:00,
2013-08-22 17:57:00,85.8,62.7,30.06,SSW,202,0.0,0.0,46,0.00,,,0.00,VWS V14.01,2013-08-22 21:57:00,
2013-08-22 18:02:00,85.5,61.1,30.06,SSW,202,0.0,2.7,44,0.00,,,0.00,VWS V14.01,2013-08-22 22:02:00,
2013-08-22 18:07:00,85.6,61.2,30.06,SSW,202,2.2,2.7,44,0.00,,,0.00,VWS V14.01,2013-08-22 22:07:00,
2013-08-22 18:13:00,85.6,62.5,30.06,SSW,202,0.0,0.0,46,0.00,,,0.00,VWS V14.01,2013-08-22 22:13:00,
2013-08-22 18:18:00,85.5,61.1,30.06,SSW,202,0.0,2.7,44,0.00,,,0.00,VWS V14.01,2013-08-22 22:18:00,
2013-08-22 18:23:00,85.1,62.0,30.06,SSW,202,0.0,0.0,46,0.00,,,0.00,VWS V14.01,2013-08-22 22:23:00,
2013-08-22 18:28:00,84.7,62.3,30.06,SSW,202,3.1,3.1,47,0.00,,,0.00,VWS V14.01,2013-08-22 22:28:00,
2013-08-22 18:33:00,84.4,62.6,30.06,SSW,202,3.1,3.1,48,0.00,,,0.00,VWS V14.01,2013-08-22 22:33:00,
2013-08-22 18:38:00,84.2,63.0,30.06,SSW,202,2.2,2.2,49,0.00,,,0.00,VWS V14.01,2013-08-22 22:38:00,
2013-08-22 18:43:00,84.0,64.5,30.06,SSW,202,2.2,3.6,52,0.00,,,0.00,VWS V14.01,2013-08-22 22:43:00,
2013-08-22 18:48:00,83.7,65.8,30.06,SSW,202,2.2,2.7,55,0.00,,,0.00,VWS V14.01,2013-08-22 22:48:00,
2013-08-22 18:53:00,83.3,66.0,30.06,SSW,202,0.0,2.7,56,0.00,,,0.00,VWS V14.01,2013-08-22 22:53:00,
2013-08-22 18:58:00,82.8,66.5,30.06,SSW,202,2.7,2.7,58,0.00,,,0.00,VWS V14.01,2013-08-22 22:58:00,
2013-08-22 19:03:00,82.4,66.7,30.06,SSW,202,2.2,2.7,59,0.00,,,0.00,VWS V14.01,2013-08-22 23:03:00,
2013-08-22 19:08:00,82.2,67.4,30.06,SSW,202,2.7,2.7,61,0.00,,,0.00,VWS V14.01,2013-08-22 23:08:00,
2013-08-22 19:13:00,81.9,67.6,30.06,SSW,202,2.2,2.2,62,0.00,,,0.00,VWS V14.01,2013-08-22 23:13:00,
2013-08-22 19:18:00,81.5,67.7,30.06,SSW,202,0.0,0.0,63,0.00,,,0.00,VWS V14.01,2013-08-22 23:18:00,
2013-08-22 19:23:00,81.1,68.3,30.06,SSW,202,0.0,0.0,65,0.00,,,0.00,VWS V14.01,2013-08-22 23:23:00,
2013-08-22 19:28:00,81.0,68.1,30.06,SSW,202,0.0,0.0,65,0.00,,,0.00,VWS V14.01,2013-08-22 23:28:00,
2013-08-22 19:33:00,80.6,68.6,30.09,SSW,202,0.0,0.0,67,0.00,,,0.00,VWS V14.01,2013-08-22 23:33:00,
2013-08-22 19:38:00,80.4,69.3,30.09,SSW,202,0.0,0.0,69,0.00,,,0.00,VWS V14.01,2013-08-22 23:38:00,
2013-08-22 19:43:00,79.9,69.2,30.09,SSW,202,0.0,0.0,70,0.00,,,0.00,VWS V14.01,2013-08-22 23:43:00,
2013-08-22 19:48:00,78.8,69.8,30.06,SSW,202,0.0,0.0,74,0.00,,,0.00,VWS V14.01,2013-08-22 23:48:00,
2013-08-22 19:54:00,78.4,70.2,30.06,SSW,202,0.0,0.0,76,0.00,,,0.00,VWS V14.01,2013-08-22 23:54:00,
2013-08-22 19:58:00,78.1,70.3,30.06,SSW,202,0.0,0.0,77,0.00,,,0.00,VWS V14.01,2013-08-22 23:58:00,
2013-08-22 20:04:00,77.9,70.9,30.06,SSW,202,0.0,0.0,79,0.00,,,0.00,VWS V14.01,2013-08-23 00:04:00,
2013-08-22 20:09:00,77.2,70.9,30.06,SSW,202,0.0,0.0,81,0.00,,,0.00,VWS V14.01,2013-08-23 00:09:00,
2013-08-22 20:14:00,76.8,71.6,30.06,SSW,202,0.0,0.0,84,0.00,,,0.00,VWS V14.01,2013-08-23 00:14:00,
2013-08-22 20:19:00,76.5,72.0,30.06,SSW,202,0.0,0.0,86,0.00,,,0.00,VWS V14.01,2013-08-23 00:19:00,
2013-08-22 20:24:00,76.1,71.9,30.06,SSW,202,0.0,0.0,87,0.00,,,0.00,VWS V14.01,2013-08-23 00:24:00,
2013-08-22 20:29:00,75.7,71.9,30.06,SSW,202,0.0,0.0,88,0.00,,,0.00,VWS V14.01,2013-08-23 00:29:00,
2013-08-22 20:34:00,75.7,71.9,30.09,SSW,202,0.0,0.0,88,0.00,,,0.00,VWS V14.01,2013-08-23 00:34:00,
2013-08-22 20:39:00,75.7,72.3,30.09,SSW,202,2.7,2.7,89,0.00,,,0.00,VWS V14.01,2013-08-23 00:39:00,
2013-08-22 20:44:00,75.7,70.9,30.09,SSW,202,0.0,0.0,85,0.00,,,0.00,VWS V14.01,2013-08-23 00:44:00,
2013-08-22 20:49:00,75.9,68.9,30.09,SSW,202,0.0,0.0,79,0.00,,,0.00,VWS V14.01,2013-08-23 00:49:00,
2013-08-22 20:54:00,75.7,67.3,30.09,SSW,202,2.2,2.2,75,0.00,,,0.00,VWS V14.01,2013-08-23 00:54:00,
2013-08-22 20:59:00,75.7,66.9,30.09,SSW,202,0.0,0.0,74,0.00,,,0.00,VWS V14.01,2013-08-23 00:59:00,
2013-08-22 21:04:00,75.4,64.9,30.09,SSW,202,0.0,0.0,70,0.00,,,0.00,VWS V14.01,2013-08-23 01:04:00,
2013-08-22 21:09:00,75.0,65.0,30.09,SSW,202,0.0,0.0,71,0.00,,,0.00,VWS V14.01,2013-08-23 01:09:00,
2013-08-22 21:15:00,74.7,65.4,30.09,SSW,202,0.0,0.0,73,0.00,,,0.00,VWS V14.01,2013-08-23 01:15:00,
2013-08-22 21:20:00,73.9,64.8,30.09,SSW,202,0.0,0.0,73,0.00,,,0.00,VWS V14.01,2013-08-23 01:20:00,
2013-08-22 21:25:00,73.4,63.0,30.09,SSW,202,0.0,0.0,70,0.00,,,0.00,VWS V14.01,2013-08-23 01:25:00,
2013-08-22 21:30:00,73.4,62.6,30.09,SSW,202,0.0,0.0,69,0.00,,,0.00,VWS V14.01,2013-08-23 01:30:00,
2013-08-22 21:35:00,72.9,63.3,30.09,SSW,202,0.0,0.0,72,0.00,,,0.00,VWS V14.01,2013-08-23 01:35:00,
2013-08-22 21:40:00,72.7,63.9,30.09,SSW,202,0.0,0.0,74,0.00,,,0.00,VWS V14.01,2013-08-23 01:40:00,
2013-08-22 21:45:00,72.3,64.3,30.09,SSW,202,2.7,2.7,76,0.00,,,0.00,VWS V14.01,2013-08-23 01:45:00,
2013-08-22 21:50:00,72.0,64.7,30.12,SSW,202,0.0,0.0,78,0.00,,,0.00,VWS V14.01,2013-08-23 01:50:00,
2013-08-22 21:55:00,71.8,65.3,30.12,SSW,202,0.0,0.0,80,0.00,,,0.00,VWS V14.01,2013-08-23 01:55:00,
2013-08-22 22:00:00,71.6,65.1,30.12,SSW,202,0.0,0.0,80,0.00,,,0.00,VWS V14.01,2013-08-23 02:00:00,
2013-08-22 22:05:00,71.4,66.0,30.12,SSW,202,0.0,0.0,83,0.00,,,0.00,VWS V14.01,2013-08-23 02:05:00,
2013-08-22 22:10:00,71.1,66.3,30.12,SSW,202,0.0,0.0,85,0.00,,,0.00,VWS V14.01,2013-08-23 02:10:00,
2013-08-22 22:15:00,70.9,66.2,30.12,SSW,202,0.0,0.0,85,0.00,,,0.00,VWS V14.01,2013-08-23 02:15:00,
2013-08-22 22:20:00,70.7,66.7,30.12,SSW,202,0.0,0.0,87,0.00,,,0.00,VWS V14.01,2013-08-23 02:20:00,
2013-08-22 22:25:00,70.5,67.1,30.12,SSW,202,0.0,0.0,89,0.00,,,0.00,VWS V14.01,2013-08-23 02:25:00,
2013-08-22 22:31:00,70.3,67.3,30.12,SSW,202,0.0,0.0,90,0.00,,,0.00,VWS V14.01,2013-08-23 02:31:00,
2013-08-22 22:36:00,70.3,67.3,30.12,SSW,202,0.0,0.0,90,0.00,,,0.00,VWS V14.01,2013-08-23 02:36:00,
2013-08-22 22:41:00,70.2,67.1,30.12,SSW,202,0.0,0.0,90,0.00,,,0.00,VWS V14.01,2013-08-23 02:41:00,
2013-08-22 22:46:00,70.0,67.2,30.12,SSW,202,0.0,0.0,91,0.00,,,0.00,VWS V14.01,2013-08-23 02:46:00,
2013-08-22 22:51:00,70.0,67.6,30.12,SSW,202,0.0,0.0,92,0.00,,,0.00,VWS V14.01,2013-08-23 02:51:00,
2013-08-22 22:56:00,69.8,67.4,30.12,SSW,202,0.0,0.0,92,0.00,,,0.00,VWS V14.01,2013-08-23 02:56:00,
2013-08-22 23:01:00,69.6,67.5,30.12,SSW,202,0.0,0.0,93,0.00,,,0.00,VWS V14.01,2013-08-23 03:01:00,
2013-08-22 23:06:00,69.6,67.8,30.12,SSW,202,0.0,0.0,94,0.00,,,0.00,VWS V14.01,2013-08-23 03:06:00,
2013-08-22 23:11:00,69.4,67.6,30.12,SSW,202,0.0,0.0,94,0.00,,,0.00,VWS V14.01,2013-08-23 03:11:00,
2013-08-22 23:16:00,69.3,67.8,30.12,SSW,202,0.0,0.0,95,0.00,,,0.00,VWS V14.01,2013-08-23 03:16:00,
2013-08-22 23:21:00,69.1,67.6,30.12,SSW,202,0.0,0.0,95,0.00,,,0.00,VWS V14.01,2013-08-23 03:21:00,
2013-08-22 23:26:00,68.9,67.4,30.12,SSW,202,0.0,0.0,95,0.00,,,0.00,VWS V14.01,2013-08-23 03:26:00,
2013-08-22 23:31:00,68.9,67.7,30.12,SSW,202,0.0,0.0,96,0.00,,,0.00,VWS V14.01,2013-08-23 03:31:00,
2013-08-22 23:36:00,68.7,67.5,30.12,SSW,202,0.0,0.0,96,0.00,,,0.00,VWS V14.01,2013-08-23 03:36:00,
2013-08-22 23:41:00,68.4,67.2,30.12,SSW,202,0.0,0.0,96,0.00,,,0.00,VWS V14.01,2013-08-23 03:41:00,
2013-08-22 23:46:00,68.2,67.0,30.12,SSW,202,0.0,0.0,96,0.00,,,0.00,VWS V14.01,2013-08-23 03:46:00,
2013-08-22 23:52:00,68.0,66.8,30.12,SSW,202,0.0,0.0,96,0.00,,,0.00,VWS V14.01,2013-08-23 03:52:00,
2013-08-22 23:57:00,67.8,66.9,30.12,SSW,202,0.0,0.0,97,0.00,,,0.00,VWS V14.01,2013-08-23 03:57:00,